createdAt,value
2019-01-31T00:00:25.078Z,6.93
2019-01-31T00:03:02.371Z,12.97
2019-01-31T00:05:44.098Z,9.60
2019-01-31T00:08:46.136Z,13.03
2019-01-31T00:11:48.500Z,10.33
2019-01-31T00:14:46.159Z,10.27
2019-01-31T00:17:41.227Z,12.30
2019-01-31T00:21:00.594Z,8.90
2019-01-31T00:23:59.771Z,10.73
2019-01-31T00:27:09.074Z,11.53
2019-01-31T00:30:14.814Z,9.17
2019-01-31T00:33:44.432Z,10.67
2019-01-31T00:36:55.412Z,8.57
2019-01-31T00:40:11.686Z,10.63
2019-01-31T00:43:22.043Z,8.77
2019-01-31T00:46:53.531Z,9.27
2019-01-31T00:50:12.637Z,9.47
2019-01-31T00:53:20.535Z,10.30
2019-01-31T00:56:14.976Z,11.33
2019-01-31T00:59:04.443Z,9.70
2019-01-31T01:02:17.523Z,10.87
2019-01-31T01:05:48.863Z,11.83
2019-01-31T01:09:07.582Z,11.60
2019-01-31T01:12:15.767Z,10.10
2019-01-31T01:15:00.428Z,15.90
2019-01-31T01:18:19.939Z,10.50
2019-01-31T01:21:20.998Z,10.00
2019-01-31T01:23:58.659Z,8.73
2019-01-31T01:26:43.972Z,11.90
2019-01-31T01:29:23.217Z,11.00
2019-01-31T01:32:30.462Z,10.30
2019-01-31T01:35:30.387Z,13.40
2019-01-31T01:38:38.426Z,14.53
2019-01-31T01:41:55.319Z,13.07
2019-01-31T01:45:02.976Z,10.67
2019-01-31T01:48:06.398Z,10.83
2019-01-31T01:51:09.137Z,12.40
2019-01-31T01:54:00.478Z,14.03
2019-01-31T01:57:11.297Z,9.97
2019-01-31T02:00:36.437Z,11.17
2019-01-31T02:03:55.696Z,10.87
2019-01-31T02:06:40.982Z,17.07
2019-01-31T02:09:45.523Z,12.13
2019-01-31T02:12:51.623Z,10.90
2019-01-31T02:15:56.505Z,15.87
2019-01-31T02:18:50.831Z,10.43
2019-01-31T02:21:54.031Z,14.60
2019-01-31T02:25:13.455Z,17.77
2019-01-31T02:28:14.840Z,15.00
2019-01-31T02:30:55.224Z,18.27
2019-01-31T02:34:05.643Z,13.57
2019-01-31T02:37:08.385Z,12.77
2019-01-31T02:40:13.300Z,15.37
2019-01-31T02:43:16.765Z,15.83
2019-01-31T02:46:26.009Z,13.83
2019-01-31T02:49:25.441Z,14.83
2019-01-31T02:52:45.237Z,12.50
2019-01-31T02:56:07.870Z,16.40
2019-01-31T02:58:44.152Z,12.60
2019-01-31T03:01:38.355Z,17.73
2019-01-31T03:04:57.919Z,12.57
2019-01-31T03:08:20.195Z,14.60
2019-01-31T03:10:57.947Z,16.10
2019-01-31T03:14:10.633Z,14.33
2019-01-31T03:17:18.219Z,15.07
2019-01-31T03:20:18.281Z,17.93
2019-01-31T03:23:10.123Z,13.67
2019-01-31T03:26:14.867Z,16.90
2019-01-31T03:29:04.375Z,17.57
2019-01-31T03:31:55.288Z,14.43
2019-01-31T03:34:58.926Z,12.93
2019-01-31T03:38:11.427Z,17.33
2019-01-31T03:41:10.211Z,15.13
2019-01-31T03:43:55.475Z,15.37
2019-01-31T03:46:32.596Z,20.07
2019-01-31T03:49:37.989Z,20.70
2019-01-31T03:52:45.431Z,13.43
2019-01-31T03:55:54.792Z,11.77
2019-01-31T03:58:59.754Z,13.23
2019-01-31T04:02:05.984Z,15.50
2019-01-31T04:05:08.717Z,16.33
2019-01-31T04:07:37.827Z,16.57
2019-01-31T04:10:18.346Z,15.33
2019-01-31T04:12:38.983Z,14.07
2019-01-31T04:15:09.232Z,20.30
2019-01-31T04:17:38.480Z,19.10
2019-01-31T04:20:08.312Z,14.90
2019-01-31T04:22:37.419Z,17.13
2019-01-31T04:25:06.556Z,15.03
2019-01-31T04:27:35.632Z,11.60
2019-01-31T04:30:06.266Z,13.27
2019-01-31T04:32:35.819Z,15.57
2019-01-31T04:35:05.690Z,16.63
2019-01-31T04:37:34.800Z,14.73
2019-01-31T04:40:04.685Z,16.07
2019-01-31T04:42:33.676Z,16.63
2019-01-31T04:45:02.716Z,14.20
2019-01-31T04:47:31.827Z,13.07
2019-01-31T04:50:00.918Z,14.37
2019-01-31T04:52:29.880Z,15.00
2019-01-31T04:54:59.029Z,12.93
2019-01-31T04:57:28.172Z,14.07
2019-01-31T04:59:57.316Z,13.93
2019-01-31T05:02:26.479Z,15.97
2019-01-31T05:04:55.540Z,13.73
2019-01-31T05:07:24.942Z,18.70
2019-01-31T05:09:53.967Z,14.63
2019-01-31T05:12:23.085Z,15.63
2019-01-31T05:14:52.096Z,17.30
2019-01-31T05:17:21.094Z,12.03
2019-01-31T05:19:50.387Z,16.03
2019-01-31T05:22:19.458Z,15.87
2019-01-31T05:24:48.898Z,12.37
2019-01-31T05:27:18.279Z,11.27
2019-01-31T05:29:47.380Z,14.47
2019-01-31T05:32:16.419Z,14.33
2019-01-31T05:34:45.495Z,11.37
2019-01-31T05:37:14.637Z,19.37
2019-01-31T05:39:43.850Z,13.20
2019-01-31T05:42:12.996Z,13.77
2019-01-31T05:44:42.137Z,9.43
2019-01-31T05:47:11.253Z,13.30
2019-01-31T05:49:40.624Z,10.77
2019-01-31T05:52:09.783Z,9.80
2019-01-31T05:54:39.140Z,13.80
2019-01-31T05:57:08.280Z,15.93
2019-01-31T05:59:37.313Z,16.43
2019-01-31T06:02:06.459Z,11.13
2019-01-31T06:04:35.590Z,13.00
2019-01-31T06:07:11.156Z,12.67
2019-01-31T06:09:35.383Z,10.83
2019-01-31T06:12:04.587Z,12.90
2019-01-31T06:14:33.709Z,10.43
2019-01-31T06:17:02.691Z,10.77
2019-01-31T06:19:31.923Z,10.30
2019-01-31T06:22:00.919Z,10.87
2019-01-31T06:24:30.009Z,11.77
2019-01-31T06:26:59.099Z,18.37
2019-01-31T06:29:28.067Z,14.63
2019-01-31T06:31:57.199Z,11.37
2019-01-31T06:34:26.102Z,7.50
2019-01-31T06:36:55.323Z,11.97
2019-01-31T06:39:24.435Z,11.50
2019-01-31T06:41:53.575Z,10.37
2019-01-31T06:44:22.698Z,12.43
2019-01-31T06:46:51.747Z,9.67
2019-01-31T06:49:20.879Z,11.83
2019-01-31T06:51:50.143Z,10.13
2019-01-31T06:54:19.234Z,12.73
2019-01-31T06:56:48.270Z,11.43
2019-01-31T06:59:17.395Z,11.00
2019-01-31T07:01:46.603Z,9.87
2019-01-31T07:04:15.755Z,12.33
2019-01-31T07:06:44.838Z,9.80
2019-01-31T07:09:14.126Z,10.33
2019-01-31T07:11:43.232Z,11.97
2019-01-31T07:14:12.306Z,13.10
2019-01-31T07:16:41.467Z,15.77
2019-01-31T07:19:10.557Z,13.33
2019-01-31T07:21:41.980Z,13.70
2019-01-31T07:24:11.431Z,17.00
2019-01-31T07:26:41.511Z,12.40
2019-01-31T07:29:11.003Z,17.87
2019-01-31T07:31:40.147Z,12.73
2019-01-31T07:34:09.400Z,13.40
2019-01-31T07:36:38.591Z,14.00
2019-01-31T07:39:08.913Z,13.30
2019-01-31T07:41:41.521Z,11.07
2019-01-31T07:44:09.279Z,17.40
2019-01-31T07:46:38.328Z,14.67
2019-01-31T07:49:07.466Z,15.13
2019-01-31T07:51:36.629Z,13.00
2019-01-31T07:54:05.788Z,16.00
2019-01-31T07:56:34.759Z,19.30
2019-01-31T07:59:03.879Z,12.20
2019-01-31T08:01:33.039Z,8.50
2019-01-31T08:04:02.873Z,7.00
2019-01-31T08:06:32.291Z,13.63
2019-01-31T08:09:01.743Z,17.03
2019-01-31T08:11:30.940Z,12.33
2019-01-31T08:14:00.073Z,14.13
2019-01-31T08:16:29.206Z,17.00
2019-01-31T08:18:58.627Z,16.83
2019-01-31T08:21:27.785Z,15.73
2019-01-31T08:23:56.896Z,19.93
2019-01-31T08:26:26.035Z,14.43
2019-01-31T08:28:55.054Z,13.37
2019-01-31T08:31:24.123Z,16.57
2019-01-31T08:33:53.076Z,13.03
2019-01-31T08:36:22.211Z,15.40
2019-01-31T08:38:51.421Z,15.97
2019-01-31T08:41:20.488Z,14.97
2019-01-31T08:43:49.676Z,12.77
2019-01-31T08:46:18.674Z,13.07
2019-01-31T08:48:47.812Z,14.57
2019-01-31T08:51:16.959Z,15.13
2019-01-31T08:53:46.026Z,9.93
2019-01-31T08:56:15.165Z,14.33
2019-01-31T08:58:44.186Z,10.57
2019-01-31T09:01:13.375Z,13.70
2019-01-31T09:03:42.518Z,12.07
2019-01-31T09:06:11.675Z,10.57
2019-01-31T09:08:40.872Z,14.23
2019-01-31T09:11:10.260Z,12.43
2019-01-31T09:13:39.456Z,11.57
2019-01-31T09:16:08.508Z,14.93
2019-01-31T09:18:37.660Z,10.67
2019-01-31T09:21:15.933Z,13.83
2019-01-31T09:24:26.340Z,9.63
2019-01-31T09:27:20.680Z,10.60
2019-01-31T09:30:19.551Z,11.97
2019-01-31T09:33:35.679Z,11.73
2019-01-31T09:36:28.699Z,8.43
2019-01-31T09:39:54.205Z,8.67
2019-01-31T09:42:35.635Z,9.90
2019-01-31T09:45:36.988Z,7.97
2019-01-31T09:48:27.723Z,8.90
2019-01-31T09:51:25.917Z,9.77
2019-01-31T09:54:16.494Z,10.10
2019-01-31T09:57:47.842Z,11.60
2019-01-31T10:01:04.636Z,9.47
2019-01-31T10:04:10.343Z,7.93
2019-01-31T10:07:17.796Z,8.43
2019-01-31T10:10:44.450Z,9.83
2019-01-31T10:14:06.203Z,8.63
2019-01-31T10:16:55.598Z,10.53
2019-01-31T10:19:37.123Z,11.03
2019-01-31T10:22:28.337Z,9.93
2019-01-31T10:25:39.972Z,10.83
2019-01-31T10:28:41.036Z,10.53
2019-01-31T10:31:53.152Z,9.40
2019-01-31T10:35:02.425Z,10.50
2019-01-31T10:38:19.385Z,9.67
2019-01-31T10:41:17.786Z,11.80
2019-01-31T10:44:22.274Z,11.83
2019-01-31T10:47:40.559Z,13.60
2019-01-31T10:50:48.002Z,10.80
2019-01-31T10:54:13.928Z,10.53
2019-01-31T10:57:36.397Z,10.50
2019-01-31T11:00:39.594Z,10.93
2019-01-31T11:04:01.728Z,9.67
2019-01-31T11:07:20.787Z,8.77
2019-01-31T11:10:36.862Z,13.87
2019-01-31T11:13:36.350Z,14.50
2019-01-31T11:16:52.421Z,15.60
2019-01-31T11:19:42.803Z,13.77
2019-01-31T11:22:34.017Z,16.40
2019-01-31T11:25:50.137Z,19.20
2019-01-31T11:28:53.482Z,16.83
2019-01-31T11:32:04.264Z,16.20
2019-01-31T11:35:08.093Z,16.23
2019-01-31T11:38:25.405Z,18.17
2019-01-31T11:41:19.757Z,14.90
2019-01-31T11:44:11.114Z,15.43
2019-01-31T11:46:53.753Z,19.07
2019-01-31T11:49:55.549Z,20.67
2019-01-31T11:53:11.364Z,16.23
2019-01-31T11:56:07.457Z,16.30
2019-01-31T11:58:51.283Z,18.70
2019-01-31T12:01:20.564Z,19.97
2019-01-31T12:04:10.667Z,15.17
2019-01-31T12:06:39.836Z,17.20
2019-01-31T12:09:12.453Z,20.17
2019-01-31T12:11:44.919Z,16.60
2019-01-31T12:14:14.203Z,16.60
2019-01-31T12:16:43.435Z,17.67
2019-01-31T12:19:12.703Z,14.40
2019-01-31T12:21:42.231Z,13.60
2019-01-31T12:24:16.491Z,15.43
2019-01-31T12:26:42.718Z,15.13
2019-01-31T12:29:11.911Z,15.67
2019-01-31T12:31:41.033Z,13.37
2019-01-31T12:34:10.470Z,14.63
2019-01-31T12:36:39.581Z,17.13
2019-01-31T12:39:10.808Z,13.37
2019-01-31T12:41:40.025Z,16.17
2019-01-31T12:44:09.440Z,16.30
2019-01-31T12:46:38.547Z,14.37
2019-01-31T12:49:07.873Z,13.83
2019-01-31T12:51:37.090Z,15.83
2019-01-31T12:54:06.297Z,18.37
2019-01-31T12:56:35.608Z,15.50
2019-01-31T12:59:04.795Z,15.80
2019-01-31T13:01:34.172Z,13.70
2019-01-31T13:04:03.586Z,17.67
2019-01-31T13:06:32.690Z,19.93
2019-01-31T13:09:01.844Z,17.17
2019-01-31T13:11:31.000Z,14.30
2019-01-31T13:14:00.184Z,13.73
2019-01-31T13:16:29.624Z,14.33
2019-01-31T13:19:00.221Z,13.97
2019-01-31T13:21:29.503Z,16.63
2019-01-31T13:24:00.853Z,17.80
2019-01-31T13:26:30.254Z,16.60
2019-01-31T13:28:59.494Z,13.73
2019-01-31T13:31:28.702Z,14.17
2019-01-31T13:33:58.087Z,16.33
2019-01-31T13:36:27.533Z,14.93
2019-01-31T13:38:56.678Z,18.50
2019-01-31T13:41:25.885Z,15.47
2019-01-31T13:43:57.660Z,17.57
2019-01-31T13:46:26.407Z,14.83
2019-01-31T13:48:56.635Z,15.90
2019-01-31T13:51:25.746Z,12.87
2019-01-31T13:53:55.005Z,19.17
2019-01-31T13:56:24.173Z,15.27
2019-01-31T13:58:53.304Z,18.60
2019-01-31T14:01:22.348Z,13.23
2019-01-31T14:03:51.581Z,12.87
2019-01-31T14:06:20.744Z,12.07
2019-01-31T14:08:49.832Z,18.30
2019-01-31T14:11:18.901Z,12.33
2019-01-31T14:13:48.224Z,15.60
2019-01-31T14:16:17.507Z,10.97
2019-01-31T14:18:46.616Z,11.60
2019-01-31T14:21:17.339Z,11.50
2019-01-31T14:23:46.582Z,11.60
2019-01-31T14:26:35.876Z,10.40
2019-01-31T14:29:05.893Z,11.37
2019-01-31T14:31:35.101Z,11.03
2019-01-31T14:34:04.299Z,14.47
2019-01-31T14:36:33.400Z,10.33
2019-01-31T14:39:02.561Z,12.43
2019-01-31T14:41:31.673Z,11.93
2019-01-31T14:44:00.949Z,10.50
2019-01-31T14:46:30.108Z,10.73
2019-01-31T14:49:02.203Z,8.87
2019-01-31T14:51:29.967Z,13.80
2019-01-31T14:53:59.095Z,8.70
2019-01-31T14:56:28.681Z,8.53
2019-01-31T14:58:57.888Z,8.27
2019-01-31T15:01:27.162Z,7.60
2019-01-31T15:03:56.234Z,7.97
2019-01-31T15:06:25.325Z,8.70
2019-01-31T15:08:54.321Z,8.33
2019-01-31T15:11:23.396Z,9.87
2019-01-31T15:13:52.446Z,7.10
2019-01-31T15:16:21.665Z,8.90
2019-01-31T15:18:50.875Z,10.37
2019-01-31T15:21:20.019Z,8.10
2019-01-31T15:23:49.047Z,6.80
2019-01-31T15:26:18.058Z,8.00
2019-01-31T15:28:47.103Z,7.80
2019-01-31T15:31:16.360Z,11.60
2019-01-31T15:33:45.527Z,8.60
2019-01-31T15:36:14.604Z,8.20
2019-01-31T15:38:43.803Z,8.87
2019-01-31T15:41:13.206Z,7.87
2019-01-31T15:43:43.202Z,6.23
2019-01-31T15:46:12.338Z,12.43
2019-01-31T15:48:41.483Z,7.97
2019-01-31T15:51:10.692Z,6.53
2019-01-31T15:53:39.840Z,7.07
2019-01-31T15:56:09.632Z,10.57
2019-01-31T15:58:38.807Z,8.20
2019-01-31T16:01:11.398Z,7.43
2019-01-31T16:03:40.528Z,8.80
2019-01-31T16:06:09.647Z,7.87
2019-01-31T16:08:38.838Z,8.83
2019-01-31T16:11:07.979Z,5.60
2019-01-31T16:13:37.284Z,12.53
2019-01-31T16:16:06.610Z,7.87
2019-01-31T16:18:36.037Z,13.53
2019-01-31T16:21:05.382Z,8.27
2019-01-31T16:23:34.607Z,6.90
2019-01-31T16:26:04.072Z,8.03
2019-01-31T16:28:33.116Z,6.77
2019-01-31T16:31:02.384Z,7.50
2019-01-31T16:33:31.456Z,5.67
2019-01-31T16:36:00.658Z,9.03
2019-01-31T16:38:30.130Z,8.23
2019-01-31T16:40:59.267Z,6.60
2019-01-31T16:43:28.450Z,5.33
2019-01-31T16:45:57.674Z,5.63
2019-01-31T16:48:27.043Z,7.23
2019-01-31T16:50:56.127Z,6.23
2019-01-31T16:53:25.304Z,8.07
2019-01-31T16:55:55.259Z,7.43
2019-01-31T16:58:24.769Z,6.53
2019-01-31T17:00:54.157Z,6.77
2019-01-31T17:03:23.273Z,8.50
2019-01-31T17:05:52.415Z,8.63
2019-01-31T17:08:21.498Z,9.97
2019-01-31T17:10:50.643Z,7.50
2019-01-31T17:13:19.819Z,6.43
2019-01-31T17:15:48.914Z,6.97
2019-01-31T17:18:18.229Z,9.23
2019-01-31T17:20:47.341Z,9.20
2019-01-31T17:23:16.500Z,9.17
2019-01-31T17:25:45.715Z,11.10
2019-01-31T17:28:14.847Z,9.67
2019-01-31T17:30:44.021Z,7.20
2019-01-31T17:33:13.245Z,7.13
2019-01-31T17:35:42.473Z,6.53
2019-01-31T17:38:11.623Z,5.87
2019-01-31T17:40:42.329Z,10.03
2019-01-31T17:43:12.354Z,7.43
2019-01-31T17:45:41.903Z,5.90
2019-01-31T17:48:14.716Z,10.10
2019-01-31T17:50:44.214Z,6.63
2019-01-31T17:53:13.583Z,5.60
2019-01-31T17:55:42.960Z,6.87
2019-01-31T17:58:12.376Z,6.30
2019-01-31T18:00:51.376Z,7.47
2019-01-31T18:03:20.556Z,6.20
2019-01-31T18:05:50.094Z,6.07
2019-01-31T18:08:19.432Z,6.07
2019-01-31T18:10:48.498Z,6.87
2019-01-31T18:13:17.846Z,5.60
2019-01-31T18:15:46.921Z,5.50
2019-01-31T18:18:16.235Z,4.63
2019-01-31T18:20:45.430Z,8.57
2019-01-31T18:23:14.505Z,6.10
2019-01-31T18:25:43.567Z,5.47
2019-01-31T18:28:12.717Z,5.73
2019-01-31T18:30:42.105Z,5.80
2019-01-31T18:33:11.454Z,4.80
2019-01-31T18:35:40.679Z,5.27
2019-01-31T18:38:09.876Z,4.70
2019-01-31T18:40:38.955Z,5.20
2019-01-31T18:43:08.468Z,5.20
2019-01-31T18:45:37.675Z,5.63
2019-01-31T18:48:07.103Z,8.70
2019-01-31T18:50:38.370Z,4.37
2019-01-31T18:53:08.103Z,7.30
2019-01-31T18:55:43.798Z,4.67
2019-01-31T18:58:13.934Z,4.93
2019-01-31T19:00:45.883Z,6.80
2019-01-31T19:03:18.149Z,6.73
2019-01-31T19:05:47.738Z,6.77
2019-01-31T19:08:21.345Z,3.50
2019-01-31T19:10:50.755Z,5.20
2019-01-31T19:13:20.191Z,4.93
2019-01-31T19:15:49.667Z,3.27
2019-01-31T19:18:19.028Z,3.43
2019-01-31T19:20:48.279Z,4.67
2019-01-31T19:23:17.520Z,6.83
2019-01-31T19:25:47.324Z,7.30
2019-01-31T19:28:16.717Z,6.07
2019-01-31T19:30:45.952Z,4.83
2019-01-31T19:33:15.025Z,6.27
2019-01-31T19:35:44.206Z,5.20
2019-01-31T19:38:13.405Z,4.20
2019-01-31T19:40:46.404Z,5.83
2019-01-31T19:43:15.560Z,7.73
2019-01-31T19:45:50.072Z,3.90
2019-01-31T19:48:19.293Z,6.17
2019-01-31T19:50:48.754Z,3.23
2019-01-31T19:53:18.111Z,4.13
2019-01-31T19:55:47.353Z,2.93
2019-01-31T19:58:16.636Z,5.77
2019-01-31T20:00:46.032Z,4.50
2019-01-31T20:03:15.401Z,6.20
2019-01-31T20:05:44.729Z,4.90
2019-01-31T20:08:15.062Z,4.60
2019-01-31T20:10:44.623Z,4.87
2019-01-31T20:13:15.943Z,4.83
2019-01-31T20:15:45.430Z,2.83
2019-01-31T20:18:14.894Z,3.57
2019-01-31T20:20:44.166Z,5.43
2019-01-31T20:23:13.857Z,9.70
2019-01-31T20:25:43.709Z,3.43
2019-01-31T20:28:13.195Z,4.77
2019-01-31T20:30:42.782Z,2.90
2019-01-31T20:33:12.137Z,3.03
2019-01-31T20:35:41.630Z,5.73
2019-01-31T20:38:10.886Z,3.63
2019-01-31T20:40:42.146Z,4.63
2019-01-31T20:43:11.267Z,4.43
2019-01-31T20:45:40.416Z,3.07
2019-01-31T20:48:09.796Z,2.93
2019-01-31T20:50:42.848Z,2.90
2019-01-31T20:53:12.063Z,4.00
2019-01-31T20:55:41.419Z,4.13
2019-01-31T20:58:10.750Z,2.43
2019-01-31T21:00:44.549Z,2.83
2019-01-31T21:03:16.875Z,4.43
2019-01-31T21:05:46.013Z,3.53
2019-01-31T21:08:15.459Z,3.87
2019-01-31T21:10:44.851Z,4.87
2019-01-31T21:13:13.862Z,4.83
2019-01-31T21:15:42.823Z,2.77
2019-01-31T21:18:11.979Z,2.87
2019-01-31T21:20:41.216Z,3.70
2019-01-31T21:23:10.672Z,4.47
2019-01-31T21:25:39.740Z,2.80
2019-01-31T21:28:09.390Z,2.17
2019-01-31T21:30:40.679Z,4.07
2019-01-31T21:33:09.798Z,8.37
2019-01-31T21:35:39.067Z,3.40
2019-01-31T21:38:08.227Z,4.30
2019-01-31T21:40:38.428Z,3.50
2019-01-31T21:43:07.550Z,4.50
2019-01-31T21:45:36.779Z,2.87
2019-01-31T21:48:07.763Z,3.27
2019-01-31T21:50:36.842Z,3.83
2019-01-31T21:53:06.226Z,3.40
2019-01-31T21:55:35.319Z,2.33
2019-01-31T21:58:04.443Z,3.37
2019-01-31T22:00:33.781Z,3.17
2019-01-31T22:03:03.357Z,6.60
2019-01-31T22:05:32.395Z,4.53
2019-01-31T22:08:01.399Z,2.90
2019-01-31T22:10:30.530Z,2.87
2019-01-31T22:13:02.407Z,5.63
2019-01-31T22:15:31.447Z,4.83
2019-01-31T22:18:00.859Z,2.20
2019-01-31T22:20:30.040Z,4.07
2019-01-31T22:22:59.143Z,5.40
2019-01-31T22:25:28.163Z,4.90
2019-01-31T22:27:57.372Z,3.50
2019-01-31T22:30:28.848Z,4.23
2019-01-31T22:32:57.929Z,4.37
2019-01-31T22:35:27.039Z,6.93
2019-01-31T22:37:56.103Z,4.17
2019-01-31T22:40:25.172Z,4.57
2019-01-31T22:42:54.167Z,2.40
2019-01-31T22:45:23.416Z,2.97
2019-01-31T22:47:52.611Z,2.77
2019-01-31T22:50:41.527Z,2.03
2019-01-31T22:53:12.617Z,2.50
2019-01-31T22:55:42.097Z,1.73
2019-01-31T22:58:11.092Z,2.03
2019-01-31T23:01:21.835Z,3.60
2019-01-31T23:03:50.992Z,1.57
2019-01-31T23:06:20.082Z,2.93
2019-01-31T23:08:49.306Z,3.87
2019-01-31T23:11:18.514Z,2.00
2019-01-31T23:13:47.468Z,2.30
2019-01-31T23:16:16.537Z,2.43
2019-01-31T23:18:45.625Z,5.97
2019-01-31T23:21:14.707Z,3.20
2019-01-31T23:23:43.720Z,1.70
2019-01-31T23:26:13.138Z,2.90
2019-01-31T23:28:42.131Z,1.63
2019-01-31T23:31:11.239Z,1.80
2019-01-31T23:33:41.248Z,1.93
2019-01-31T23:36:10.527Z,1.70
2019-01-31T23:38:39.606Z,2.87
2019-01-31T23:41:08.584Z,2.10
2019-01-31T23:43:37.628Z,4.40
2019-01-31T23:46:06.730Z,2.83
2019-01-31T23:48:35.849Z,3.67
2019-01-31T23:51:05.098Z,4.00
2019-01-31T23:53:34.462Z,4.93
2019-01-31T23:56:03.591Z,5.03
2019-01-31T23:58:32.623Z,2.07
